createdAt,value
2022-08-31T00:00:58.189Z,98661.03
2022-08-31T00:03:43.934Z,98665.63
2022-08-31T00:06:11.963Z,98663.13
2022-08-31T00:08:40.040Z,98651.00
2022-08-31T00:11:13.643Z,98650.50
2022-08-31T00:13:46.411Z,98657.69
2022-08-31T00:16:16.290Z,98661.81
2022-08-31T00:18:44.359Z,98673.09
2022-08-31T00:21:12.410Z,98680.81
2022-08-31T00:23:40.463Z,98692.50
2022-08-31T00:26:08.511Z,98695.16
2022-08-31T00:28:36.572Z,98702.09
2022-08-31T00:31:04.626Z,98718.59
2022-08-31T00:33:37.655Z,98732.81
2022-08-31T00:36:06.523Z,98739.44
2022-08-31T00:38:34.706Z,98754.81
2022-08-31T00:41:02.765Z,98756.47
2022-08-31T00:43:42.391Z,98765.53
2022-08-31T00:46:12.365Z,98769.38
2022-08-31T00:48:43.603Z,98775.13
2022-08-31T00:51:12.328Z,98782.81
2022-08-31T00:53:48.014Z,98778.41
2022-08-31T00:56:19.259Z,98765.53
2022-08-31T00:58:51.350Z,98761.44
2022-08-31T01:01:23.684Z,98759.28
2022-08-31T01:03:53.219Z,98750.97
2022-08-31T01:06:21.785Z,98749.69
2022-08-31T01:08:49.982Z,98759.53
2022-08-31T01:11:19.745Z,98756.53
2022-08-31T01:13:48.054Z,98743.38
2022-08-31T01:16:19.590Z,98721.47
2022-08-31T01:18:52.543Z,98727.22
2022-08-31T01:21:26.867Z,98731.06
2022-08-31T01:23:57.867Z,98740.09
2022-08-31T01:26:27.103Z,98732.94
2022-08-31T01:28:57.318Z,98731.06
2022-08-31T01:31:27.524Z,98740.66
2022-08-31T01:33:56.029Z,98737.34
2022-08-31T01:36:26.271Z,98712.16
2022-08-31T01:38:54.351Z,98704.44
2022-08-31T01:41:23.742Z,98725.59
2022-08-31T01:43:52.993Z,98722.03
2022-08-31T01:46:23.993Z,98744.50
2022-08-31T01:48:52.872Z,98754.88
2022-08-31T01:51:22.585Z,98757.03
2022-08-31T01:53:52.995Z,98777.88
2022-08-31T01:56:22.652Z,98786.34
2022-08-31T01:58:52.580Z,98788.56
2022-08-31T02:01:48.945Z,98780.63
2022-08-31T02:04:19.435Z,98783.59
2022-08-31T02:06:50.205Z,98780.59
2022-08-31T02:09:20.439Z,98772.16
2022-08-31T02:11:48.612Z,98772.41
2022-08-31T02:14:18.417Z,98768.56
2022-08-31T02:16:47.219Z,98777.88
2022-08-31T02:19:15.341Z,98778.44
2022-08-31T02:21:43.473Z,98771.53
2022-08-31T02:24:12.393Z,98781.16
2022-08-31T02:26:40.828Z,98772.94
2022-08-31T02:29:11.363Z,98772.34
2022-08-31T02:31:41.527Z,98767.22
2022-08-31T02:34:09.645Z,98764.47
2022-08-31T02:36:37.859Z,98761.44
2022-08-31T02:39:07.059Z,98771.25
2022-08-31T02:41:37.229Z,98770.78
2022-08-31T02:44:05.528Z,98769.13
2022-08-31T02:46:35.869Z,98771.31
2022-08-31T02:49:32.499Z,98777.56
2022-08-31T02:52:01.734Z,98781.72
2022-08-31T02:54:29.857Z,98779.13
2022-08-31T02:57:00.535Z,98784.38
2022-08-31T02:59:28.643Z,98757.84
2022-08-31T03:01:56.842Z,98789.56
2022-08-31T03:04:25.403Z,98785.00
2022-08-31T03:06:54.844Z,98782.81
2022-08-31T03:09:23.099Z,98786.00
2022-08-31T03:11:51.249Z,98794.13
2022-08-31T03:14:19.298Z,98804.81
2022-08-31T03:16:47.417Z,98807.94
2022-08-31T03:19:21.068Z,98799.13
2022-08-31T03:21:49.293Z,98812.97
2022-08-31T03:24:27.372Z,98825.22
2022-08-31T03:26:56.031Z,98824.72
2022-08-31T03:29:26.447Z,98828.75
2022-08-31T03:32:17.701Z,98840.19
2022-08-31T03:34:48.874Z,98843.19
2022-08-31T03:37:16.886Z,98841.56
2022-08-31T03:39:46.338Z,98825.88
2022-08-31T03:42:14.515Z,98818.25
2022-08-31T03:44:42.595Z,98819.88
2022-08-31T03:47:19.304Z,98827.41
2022-08-31T03:49:47.381Z,98837.53
2022-08-31T03:52:24.043Z,98853.63
2022-08-31T03:55:08.181Z,98846.47
2022-08-31T03:57:36.658Z,98857.38
2022-08-31T04:00:06.006Z,98854.31
2022-08-31T04:02:42.890Z,98860.59
2022-08-31T04:05:30.354Z,98863.97
2022-08-31T04:08:13.879Z,98856.84
2022-08-31T04:11:01.689Z,98841.38
2022-08-31T04:13:48.527Z,98828.22
2022-08-31T04:16:35.864Z,98823.19
2022-08-31T04:19:32.946Z,98826.94
2022-08-31T04:22:17.011Z,98843.16
2022-08-31T04:25:03.839Z,98850.53
2022-08-31T04:27:33.305Z,98857.97
2022-08-31T04:30:02.006Z,98849.09
2022-08-31T04:32:30.817Z,98822.41
2022-08-31T04:35:01.890Z,98809.03
2022-08-31T04:37:30.722Z,98804.16
2022-08-31T04:40:01.269Z,98798.16
2022-08-31T04:42:30.971Z,98810.50
2022-08-31T04:45:00.558Z,98839.09
2022-08-31T04:47:28.774Z,98853.63
2022-08-31T04:49:59.180Z,98866.59
2022-08-31T04:52:29.120Z,98881.28
2022-08-31T04:54:58.676Z,98893.59
2022-08-31T04:57:27.422Z,98891.25
2022-08-31T04:59:55.553Z,98891.69
2022-08-31T05:02:43.597Z,98894.13
2022-08-31T05:05:15.735Z,98898.97
2022-08-31T05:07:44.213Z,98895.34
2022-08-31T05:10:13.395Z,98898.63
2022-08-31T05:12:41.426Z,98903.00
2022-08-31T05:15:13.194Z,98909.56
2022-08-31T05:17:41.234Z,98914.19
2022-08-31T05:20:11.174Z,98911.88
2022-08-31T05:22:39.282Z,98921.41
2022-08-31T05:25:07.972Z,98924.13
2022-08-31T05:27:36.255Z,98927.44
2022-08-31T05:30:07.016Z,98928.78
2022-08-31T05:33:03.771Z,98926.59
2022-08-31T05:35:35.380Z,98931.84
2022-08-31T05:38:03.495Z,98934.91
2022-08-31T05:40:32.027Z,98944.69
2022-08-31T05:43:00.357Z,98943.63
2022-08-31T05:45:28.822Z,98943.63
2022-08-31T05:47:57.079Z,98940.94
2022-08-31T05:50:27.547Z,98937.13
2022-08-31T05:52:56.977Z,98938.78
2022-08-31T05:55:25.199Z,98917.25
2022-08-31T05:57:53.445Z,98909.84
2022-08-31T06:00:21.659Z,98912.59
2022-08-31T06:02:58.640Z,98911.78
2022-08-31T06:05:26.833Z,98918.34
2022-08-31T06:07:55.444Z,98915.91
2022-08-31T06:10:28.001Z,98917.00
2022-08-31T06:12:56.094Z,98924.69
2022-08-31T06:15:26.574Z,98919.75
2022-08-31T06:17:57.643Z,98937.19
2022-08-31T06:20:27.319Z,98910.56
2022-08-31T06:22:55.915Z,98903.13
2022-08-31T06:25:36.572Z,98905.03
2022-08-31T06:28:05.723Z,98909.53
2022-08-31T06:30:38.584Z,98910.28
2022-08-31T06:33:16.299Z,98915.56
2022-08-31T06:35:59.072Z,98945.84
2022-08-31T06:38:46.001Z,98960.41
2022-08-31T06:41:52.562Z,98945.75
2022-08-31T06:44:43.497Z,98936.22
2022-08-31T06:47:24.040Z,98924.94
2022-08-31T06:49:53.608Z,98933.16
2022-08-31T06:52:24.666Z,98931.22
2022-08-31T06:55:07.775Z,98945.31
2022-08-31T06:57:57.120Z,98938.78
2022-08-31T07:00:43.762Z,98942.06
2022-08-31T07:03:24.486Z,98943.09
2022-08-31T07:05:54.201Z,98925.78
2022-08-31T07:08:22.530Z,98928.09
2022-08-31T07:10:51.057Z,98938.94
2022-08-31T07:13:22.974Z,98958.81
2022-08-31T07:15:51.190Z,98955.78
2022-08-31T07:18:19.335Z,98966.78
2022-08-31T07:20:47.413Z,98974.75
2022-08-31T07:23:15.562Z,98976.41
2022-08-31T07:25:54.058Z,98963.56
2022-08-31T07:28:25.000Z,98951.47
2022-08-31T07:30:53.766Z,98927.69
2022-08-31T07:33:21.863Z,98917.19
2022-08-31T07:35:55.685Z,98925.56
2022-08-31T07:38:51.513Z,98918.56
2022-08-31T07:41:51.871Z,98895.31
2022-08-31T07:44:23.729Z,98927.63
2022-08-31T07:46:55.253Z,98939.19
2022-08-31T07:49:26.187Z,98893.44
2022-08-31T07:52:20.922Z,98889.84
2022-08-31T07:55:06.471Z,98892.88
2022-08-31T07:57:53.246Z,98883.44
2022-08-31T08:00:24.298Z,98903.78
2022-08-31T08:02:53.966Z,98878.72
2022-08-31T08:05:28.749Z,98884.38
2022-08-31T08:08:16.819Z,98909.34
2022-08-31T08:11:04.224Z,98915.44
2022-08-31T08:13:38.141Z,98931.88
2022-08-31T08:16:26.428Z,98930.03
2022-08-31T08:19:17.882Z,98915.84
2022-08-31T08:21:47.059Z,98915.03
2022-08-31T08:24:16.356Z,98913.38
2022-08-31T08:27:03.087Z,98899.13
2022-08-31T08:29:50.035Z,98898.31
2022-08-31T08:32:25.754Z,98887.16
2022-08-31T08:34:54.126Z,98883.78
2022-08-31T08:37:47.371Z,98904.09
2022-08-31T08:40:22.845Z,98895.56
2022-08-31T08:42:51.145Z,98899.69
2022-08-31T08:45:19.329Z,98900.84
2022-08-31T08:47:51.639Z,98900.78
2022-08-31T08:50:20.150Z,98897.53
2022-08-31T08:52:48.632Z,98905.75
2022-08-31T08:55:18.574Z,98908.22
2022-08-31T08:57:49.932Z,98907.41
2022-08-31T09:00:20.527Z,98910.34
2022-08-31T09:02:58.224Z,98909.84
2022-08-31T09:05:50.207Z,98904.25
2022-08-31T09:08:32.320Z,98890.19
2022-08-31T09:11:09.211Z,98894.34
2022-08-31T09:13:45.659Z,98891.78
2022-08-31T09:16:21.924Z,98885.72
2022-08-31T09:18:53.708Z,98892.88
2022-08-31T09:21:25.220Z,98899.44
2022-08-31T09:24:02.270Z,98890.38
2022-08-31T09:26:47.971Z,98886.63
2022-08-31T09:29:29.022Z,98881.16
2022-08-31T09:32:05.999Z,98881.97
2022-08-31T09:34:37.536Z,98874.31
2022-08-31T09:37:14.925Z,98875.38
2022-08-31T09:39:47.668Z,98883.59
2022-08-31T09:42:21.304Z,98875.41
2022-08-31T09:44:51.178Z,98871.28
2022-08-31T09:47:50.984Z,98881.16
2022-08-31T09:50:35.506Z,98886.91
2022-08-31T09:53:27.786Z,98879.25
2022-08-31T09:56:05.607Z,98876.75
2022-08-31T09:58:34.352Z,98874.88
2022-08-31T10:01:13.258Z,98881.72
2022-08-31T10:03:44.157Z,98878.69
2022-08-31T10:06:30.210Z,98883.59
2022-08-31T10:09:01.011Z,98875.88
2022-08-31T10:11:34.508Z,98881.41
2022-08-31T10:14:05.603Z,98886.38
2022-08-31T10:16:35.961Z,98883.06
2022-08-31T10:19:06.224Z,98876.41
2022-08-31T10:21:40.560Z,98879.22
2022-08-31T10:24:20.455Z,98870.66
2022-08-31T10:26:53.387Z,98862.13
2022-08-31T10:29:32.773Z,98866.09
2022-08-31T10:32:08.462Z,98867.63
2022-08-31T10:34:58.785Z,98868.03
2022-08-31T10:37:31.607Z,98872.44
2022-08-31T10:40:05.938Z,98869.28
2022-08-31T10:42:37.590Z,98863.69
2022-08-31T10:45:10.411Z,98872.31
2022-08-31T10:47:41.987Z,98872.53
2022-08-31T10:50:11.543Z,98868.72
2022-08-31T10:52:49.166Z,98865.72
2022-08-31T10:55:21.918Z,98869.47
2022-08-31T10:57:54.765Z,98861.50
2022-08-31T11:00:41.597Z,98859.53
2022-08-31T11:03:14.132Z,98859.81
2022-08-31T11:05:45.474Z,98862.84
2022-08-31T11:08:31.134Z,98857.94
2022-08-31T11:11:00.206Z,98865.41
2022-08-31T11:13:39.310Z,98864.66
2022-08-31T11:16:22.259Z,98865.94
2022-08-31T11:18:58.802Z,98867.78
2022-08-31T11:21:36.202Z,98864.19
2022-08-31T11:24:14.635Z,98872.56
2022-08-31T11:26:50.908Z,98863.84
2022-08-31T11:29:30.968Z,98864.88
2022-08-31T11:32:04.458Z,98858.97
2022-08-31T11:34:39.275Z,98872.41
2022-08-31T11:37:09.057Z,98866.53
2022-08-31T11:39:44.385Z,98867.38
2022-08-31T11:42:13.756Z,98868.03
2022-08-31T11:44:46.682Z,98855.94
2022-08-31T11:47:29.591Z,98864.25
2022-08-31T11:50:02.387Z,98865.00
2022-08-31T11:52:53.358Z,98865.53
2022-08-31T11:55:25.426Z,98868.84
2022-08-31T11:58:12.235Z,98862.25
2022-08-31T12:00:49.417Z,98863.84
2022-08-31T12:03:43.097Z,98860.56
2022-08-31T12:06:12.835Z,98864.13
2022-08-31T12:08:54.484Z,98857.66
2022-08-31T12:11:33.489Z,98852.19
2022-08-31T12:14:05.507Z,98852.97
2022-08-31T12:16:38.845Z,98848.31
2022-08-31T12:19:36.112Z,98833.63
2022-08-31T12:22:32.121Z,98837.72
2022-08-31T12:25:09.355Z,98835.25
2022-08-31T12:27:40.975Z,98842.88
2022-08-31T12:30:15.210Z,98837.91
2022-08-31T12:32:45.504Z,98838.13
2022-08-31T12:35:17.125Z,98827.13
2022-08-31T12:37:45.743Z,98836.19
2022-08-31T12:40:18.500Z,98828.81
2022-08-31T12:42:56.471Z,98824.25
2022-08-31T12:45:33.550Z,98822.00
2022-08-31T12:48:07.518Z,98829.75
2022-08-31T12:50:39.244Z,98819.34
2022-08-31T12:53:28.200Z,98796.03
2022-08-31T12:55:59.564Z,98810.81
2022-08-31T12:58:40.907Z,98808.03
2022-08-31T13:01:10.467Z,98808.09
2022-08-31T13:03:39.116Z,98806.47
2022-08-31T13:06:09.059Z,98807.22
2022-08-31T13:08:38.704Z,98803.81
2022-08-31T13:11:14.002Z,98796.75
2022-08-31T13:13:43.475Z,98796.19
2022-08-31T13:16:13.443Z,98804.06
2022-08-31T13:18:41.761Z,98799.34
2022-08-31T13:21:10.955Z,98808.16
2022-08-31T13:23:42.937Z,98805.56
2022-08-31T13:26:19.858Z,98808.19
2022-08-31T13:28:53.399Z,98811.03
2022-08-31T13:31:23.482Z,98815.44
2022-08-31T13:33:51.856Z,98815.56
2022-08-31T13:36:31.802Z,98819.00
2022-08-31T13:39:01.200Z,98811.38
2022-08-31T13:41:30.458Z,98822.53
2022-08-31T13:44:02.779Z,98817.47
2022-08-31T13:46:42.823Z,98814.09
2022-08-31T13:49:26.022Z,98827.00
2022-08-31T13:51:54.352Z,98819.81
2022-08-31T13:54:27.439Z,98806.09
2022-08-31T13:56:59.760Z,98804.88
2022-08-31T13:59:31.660Z,98796.16
2022-08-31T14:02:00.941Z,98801.34
2022-08-31T14:04:48.647Z,98796.03
2022-08-31T14:07:21.571Z,98799.34
2022-08-31T14:09:51.284Z,98787.59
2022-08-31T14:12:34.710Z,98786.00
2022-08-31T14:15:18.497Z,98791.06
2022-08-31T14:20:53.373Z,98785.63
2022-08-31T14:23:31.392Z,98777.97
2022-08-31T14:26:01.180Z,98779.00
2022-08-31T14:28:40.497Z,98764.13
2022-08-31T14:31:15.374Z,98774.69
2022-08-31T14:33:50.057Z,98774.00
2022-08-31T14:36:24.445Z,98757.34
2022-08-31T14:38:54.224Z,98760.19
2022-08-31T14:41:27.201Z,98759.50
2022-08-31T14:43:55.927Z,98746.19
2022-08-31T14:46:27.863Z,98751.81
2022-08-31T14:48:58.906Z,98747.78
2022-08-31T14:51:28.078Z,98741.69
2022-08-31T14:53:57.071Z,98749.28
2022-08-31T14:56:33.143Z,98751.38
2022-08-31T14:59:03.818Z,98750.81
2022-08-31T15:01:35.705Z,98740.94
2022-08-31T15:04:06.092Z,98738.88
2022-08-31T15:06:34.432Z,98761.94
2022-08-31T15:09:04.907Z,98762.34
2022-08-31T15:11:36.955Z,98779.66
2022-08-31T15:14:12.151Z,98777.41
2022-08-31T15:16:43.850Z,98765.69
2022-08-31T15:19:14.112Z,98766.72
2022-08-31T15:21:52.693Z,98761.34
2022-08-31T15:24:26.924Z,98762.81
2022-08-31T15:26:59.894Z,98760.16
2022-08-31T15:29:30.371Z,98765.09
2022-08-31T15:31:59.692Z,98766.34
2022-08-31T15:34:31.054Z,98761.81
2022-08-31T15:37:02.165Z,98769.63
2022-08-31T15:39:32.565Z,98769.94
2022-08-31T15:42:02.763Z,98766.47
2022-08-31T15:44:30.863Z,98765.91
2022-08-31T15:47:17.013Z,98765.91
2022-08-31T15:49:46.479Z,98761.34
2022-08-31T15:52:14.537Z,98763.84
2022-08-31T15:54:42.618Z,98767.09
2022-08-31T15:57:11.205Z,98766.28
2022-08-31T15:59:42.880Z,98764.91
2022-08-31T16:02:12.258Z,98770.69
2022-08-31T16:04:43.274Z,98771.19
2022-08-31T16:07:13.663Z,98762.06
2022-08-31T16:09:45.966Z,98760.81
2022-08-31T16:12:14.402Z,98761.78
2022-08-31T16:14:44.600Z,98777.19
2022-08-31T16:17:12.751Z,98776.47
2022-08-31T16:19:41.076Z,98771.69
2022-08-31T16:22:09.137Z,98758.72
2022-08-31T16:24:38.962Z,98753.31
2022-08-31T16:27:08.973Z,98748.56
2022-08-31T16:29:37.183Z,98742.56
2022-08-31T16:32:08.358Z,98734.91
2022-08-31T16:34:38.997Z,98727.06
2022-08-31T16:37:08.100Z,98735.72
2022-08-31T16:39:40.386Z,98743.91
2022-08-31T16:42:10.937Z,98743.63
2022-08-31T16:44:39.350Z,98759.91
2022-08-31T16:47:07.734Z,98751.34
2022-08-31T16:49:40.244Z,98755.59
2022-08-31T16:52:09.900Z,98771.41
2022-08-31T16:54:42.646Z,98758.66
2022-08-31T16:57:12.637Z,98753.66
2022-08-31T16:59:41.831Z,98768.53
2022-08-31T17:02:11.170Z,98768.97
2022-08-31T17:04:55.256Z,98766.69
2022-08-31T17:07:24.598Z,98756.50
2022-08-31T17:09:58.991Z,98760.38
2022-08-31T17:12:27.141Z,98760.28
2022-08-31T17:14:58.096Z,98766.31
2022-08-31T17:17:26.627Z,98771.50
2022-08-31T17:19:56.690Z,98773.38
2022-08-31T17:22:31.699Z,98771.25
2022-08-31T17:25:04.686Z,98775.44
2022-08-31T17:27:34.054Z,98777.44
2022-08-31T17:30:06.078Z,98777.13
2022-08-31T17:32:36.522Z,98764.19
2022-08-31T17:35:12.752Z,98772.88
2022-08-31T17:37:41.937Z,98781.47
2022-08-31T17:40:14.168Z,98784.31
2022-08-31T17:42:42.398Z,98798.66
2022-08-31T17:45:10.904Z,98815.38
2022-08-31T17:47:39.031Z,98816.19
2022-08-31T17:50:08.090Z,98814.56
2022-08-31T17:52:36.399Z,98834.59
2022-08-31T17:55:04.739Z,98833.50
2022-08-31T17:57:34.117Z,98840.34
2022-08-31T18:00:02.170Z,98832.94
2022-08-31T18:02:37.807Z,98846.06
2022-08-31T18:05:09.406Z,98851.84
2022-08-31T18:07:40.638Z,98851.56
2022-08-31T18:10:09.597Z,98858.69
2022-08-31T18:12:41.994Z,98869.94
2022-08-31T18:15:11.229Z,98866.66
2022-08-31T18:17:39.364Z,98868.28
2022-08-31T18:20:11.794Z,98869.38
2022-08-31T18:22:40.148Z,98873.78
2022-08-31T18:25:08.521Z,98883.06
2022-08-31T18:27:36.738Z,98887.69
2022-08-31T18:30:07.135Z,98884.16
2022-08-31T18:32:36.240Z,98891.53
2022-08-31T18:35:05.874Z,98895.34
2022-08-31T18:37:34.821Z,98902.06
2022-08-31T18:40:23.717Z,98917.38
2022-08-31T18:43:09.466Z,98922.25
2022-08-31T18:45:39.779Z,98925.88
2022-08-31T18:48:24.247Z,98937.94
2022-08-31T18:50:55.053Z,98928.63
2022-08-31T18:53:28.804Z,98928.88
2022-08-31T18:55:58.977Z,98923.66
2022-08-31T18:58:27.218Z,98933.72
2022-08-31T19:00:58.727Z,98947.28
2022-08-31T19:03:27.836Z,98954.88
2022-08-31T19:05:56.993Z,98946.69
2022-08-31T19:08:26.174Z,98945.53
2022-08-31T19:10:57.866Z,98952.53
2022-08-31T19:13:31.473Z,98942.91
2022-08-31T19:16:08.125Z,98940.53
2022-08-31T19:18:43.951Z,98936.69
2022-08-31T19:21:13.568Z,98934.34
2022-08-31T19:23:41.816Z,98935.91
2022-08-31T19:26:10.213Z,98931.84
2022-08-31T19:28:38.275Z,98927.34
2022-08-31T19:31:10.141Z,98940.78
2022-08-31T19:33:38.358Z,98939.59
2022-08-31T19:36:06.789Z,98932.78
2022-08-31T19:38:34.955Z,98924.09
2022-08-31T19:41:03.942Z,98932.41
2022-08-31T19:43:55.770Z,98932.78
2022-08-31T19:46:23.851Z,98938.97
2022-08-31T19:48:52.870Z,98945.78
2022-08-31T19:51:22.211Z,98937.97
2022-08-31T19:53:50.908Z,98929.66
2022-08-31T19:56:21.222Z,98921.84
2022-08-31T19:58:50.442Z,98927.13
2022-08-31T20:01:19.631Z,98924.41
2022-08-31T20:03:49.574Z,98924.66
2022-08-31T20:06:19.188Z,98926.34
2022-08-31T20:08:47.931Z,98929.22
2022-08-31T20:11:21.441Z,98934.34
2022-08-31T20:13:50.195Z,98925.03
2022-08-31T20:16:18.768Z,98929.91
2022-08-31T20:18:48.515Z,98930.34
2022-08-31T20:21:19.732Z,98932.34
2022-08-31T20:23:48.779Z,98923.06
2022-08-31T20:26:17.269Z,98921.34
2022-08-31T20:28:48.531Z,98931.97
2022-08-31T20:31:16.973Z,98939.09
2022-08-31T20:33:46.843Z,98902.16
2022-08-31T20:36:18.697Z,98918.72
2022-08-31T20:38:48.824Z,98917.31
2022-08-31T20:41:17.142Z,98925.13
2022-08-31T20:43:45.533Z,98919.09
2022-08-31T20:46:36.371Z,98915.22
2022-08-31T20:49:21.832Z,98921.25
2022-08-31T20:51:50.259Z,98912.94
2022-08-31T20:54:19.765Z,98920.69
2022-08-31T20:56:47.877Z,98913.41
2022-08-31T20:59:15.950Z,98905.81
2022-08-31T21:01:45.048Z,98903.63
2022-08-31T21:04:13.192Z,98907.56
2022-08-31T21:06:42.308Z,98883.63
2022-08-31T21:09:13.397Z,98873.09
2022-08-31T21:11:43.750Z,98870.75
2022-08-31T21:14:14.344Z,98872.66
2022-08-31T21:16:42.443Z,98839.66
2022-08-31T21:19:12.820Z,98819.66
2022-08-31T21:21:41.227Z,98807.34
2022-08-31T21:24:11.425Z,98798.97
2022-08-31T21:26:43.442Z,98787.22
2022-08-31T21:29:14.364Z,98782.91
2022-08-31T21:31:51.985Z,98773.91
2022-08-31T21:34:26.997Z,98774.09
2022-08-31T21:36:55.070Z,98773.28
2022-08-31T21:39:23.289Z,98777.91
2022-08-31T21:41:52.751Z,98772.91
2022-08-31T21:44:21.726Z,98768.22
2022-08-31T21:46:50.997Z,98778.78
2022-08-31T21:49:19.948Z,98779.81
2022-08-31T21:51:49.732Z,98787.06
2022-08-31T21:54:19.114Z,98791.81
2022-08-31T21:56:48.150Z,98789.91
2022-08-31T22:02:38.371Z,98786.09
2022-08-31T22:05:09.353Z,98785.78
2022-08-31T22:07:39.984Z,98793.41
2022-08-31T22:10:08.839Z,98796.88
2022-08-31T22:12:36.915Z,98801.16
2022-08-31T22:15:06.625Z,98826.38
2022-08-31T22:17:59.248Z,98822.50
2022-08-31T22:20:25.390Z,98829.94
2022-08-31T22:22:54.547Z,98833.22
2022-08-31T22:25:22.659Z,98818.97
2022-08-31T22:27:51.276Z,98811.78
2022-08-31T22:30:20.102Z,98807.78
2022-08-31T22:32:48.244Z,98813.44
2022-08-31T22:35:16.770Z,98808.88
2022-08-31T22:37:46.214Z,98813.91
2022-08-31T22:40:19.748Z,98818.84
2022-08-31T22:42:50.191Z,98817.47
2022-08-31T22:45:18.691Z,98825.16
2022-08-31T22:47:50.058Z,98822.44
2022-08-31T22:50:18.562Z,98825.41
2022-08-31T22:52:47.922Z,98820.94
2022-08-31T22:55:15.962Z,98824.66
2022-08-31T22:57:44.007Z,98826.47
2022-08-31T23:00:14.362Z,98825.25
2022-08-31T23:02:44.819Z,98824.25
2022-08-31T23:05:14.007Z,98820.88
2022-08-31T23:07:42.736Z,98826.78
2022-08-31T23:10:18.456Z,98830.06
2022-08-31T23:12:51.093Z,98839.75
2022-08-31T23:15:21.576Z,98840.66
2022-08-31T23:17:51.282Z,98847.03
2022-08-31T23:20:23.845Z,98844.78
2022-08-31T23:22:52.340Z,98854.13
2022-08-31T23:25:23.716Z,98852.97
2022-08-31T23:27:52.143Z,98839.25
2022-08-31T23:30:22.448Z,98828.19
2022-08-31T23:32:51.172Z,98821.09
2022-08-31T23:35:19.708Z,98817.41
2022-08-31T23:37:48.825Z,98816.66
2022-08-31T23:40:19.215Z,98819.44
2022-08-31T23:42:48.667Z,98832.50
2022-08-31T23:45:16.945Z,98830.88
2022-08-31T23:47:45.696Z,98833.44
2022-08-31T23:50:14.821Z,98843.56
2022-08-31T23:52:43.790Z,98845.81
2022-08-31T23:55:12.117Z,98846.06
2022-08-31T23:57:41.753Z,98850.31
